sensor_id;sensor_type;location;lat;lon;timestamp;P1;durP1;ratioP1;P2;durP2;ratioP2
28447;SDS011;15675;52.870;-1.416;2023-06-24T00:01:15;5.93;;;3.28;;
28447;SDS011;15675;52.870;-1.416;2023-06-24T00:03:41;5.95;;;3.28;;
28447;SDS011;15675;52.870;-1.416;2023-06-24T00:06:12;9.77;;;3.50;;
28447;SDS011;15675;52.870;-1.416;2023-06-24T00:08:52;5.63;;;3.20;;
28447;SDS011;15675;52.870;-1.416;2023-06-24T00:11:25;6.88;;;3.90;;
28447;SDS011;15675;52.870;-1.416;2023-06-24T00:13:52;7.68;;;3.97;;
28447;SDS011;15675;52.870;-1.416;2023-06-24T00:16:18;7.80;;;3.53;;
28447;SDS011;15675;52.870;-1.416;2023-06-24T00:21:18;6.00;;;3.55;;
28447;SDS011;15675;52.870;-1.416;2023-06-24T00:23:44;6.72;;;3.92;;
28447;SDS011;15675;52.870;-1.416;2023-06-24T00:26:10;6.38;;;3.85;;
28447;SDS011;15675;52.870;-1.416;2023-06-24T00:28:35;5.22;;;3.50;;
28447;SDS011;15675;52.870;-1.416;2023-06-24T00:31:01;12.40;;;4.18;;
28447;SDS011;15675;52.870;-1.416;2023-06-24T00:33:28;5.40;;;3.78;;
28447;SDS011;15675;52.870;-1.416;2023-06-24T00:35:53;10.07;;;4.32;;
28447;SDS011;15675;52.870;-1.416;2023-06-24T00:38:21;7.28;;;4.10;;
28447;SDS011;15675;52.870;-1.416;2023-06-24T00:40:47;5.28;;;3.80;;
28447;SDS011;15675;52.870;-1.416;2023-06-24T00:43:12;6.60;;;3.90;;
28447;SDS011;15675;52.870;-1.416;2023-06-24T00:45:38;5.63;;;3.60;;
28447;SDS011;15675;52.870;-1.416;2023-06-24T00:48:04;6.13;;;3.92;;
28447;SDS011;15675;52.870;-1.416;2023-06-24T00:50:30;8.35;;;3.92;;
28447;SDS011;15675;52.870;-1.416;2023-06-24T00:52:56;7.97;;;4.30;;
28447;SDS011;15675;52.870;-1.416;2023-06-24T00:55:21;8.55;;;3.65;;
28447;SDS011;15675;52.870;-1.416;2023-06-24T00:57:48;10.00;;;4.00;;
28447;SDS011;15675;52.870;-1.416;2023-06-24T01:00:19;7.47;;;4.00;;
28447;SDS011;15675;52.870;-1.416;2023-06-24T01:02:47;7.63;;;4.30;;
28447;SDS011;15675;52.870;-1.416;2023-06-24T01:05:13;5.47;;;3.75;;
28447;SDS011;15675;52.870;-1.416;2023-06-24T01:07:40;6.70;;;3.30;;
28447;SDS011;15675;52.870;-1.416;2023-06-24T01:10:06;8.20;;;3.92;;
28447;SDS011;15675;52.870;-1.416;2023-06-24T01:12:33;15.45;;;3.95;;
28447;SDS011;15675;52.870;-1.416;2023-06-24T01:15:01;11.95;;;3.97;;
28447;SDS011;15675;52.870;-1.416;2023-06-24T01:17:31;9.35;;;3.72;;
28447;SDS011;15675;52.870;-1.416;2023-06-24T01:23:11;8.13;;;3.90;;
28447;SDS011;15675;52.870;-1.416;2023-06-24T01:40:14;11.95;;;3.58;;
28447;SDS011;15675;52.870;-1.416;2023-06-24T01:42:44;4.47;;;3.20;;
28447;SDS011;15675;52.870;-1.416;2023-06-24T01:45:27;6.80;;;3.05;;
28447;SDS011;15675;52.870;-1.416;2023-06-24T01:48:02;6.40;;;3.45;;
28447;SDS011;15675;52.870;-1.416;2023-06-24T01:50:33;7.47;;;2.95;;
28447;SDS011;15675;52.870;-1.416;2023-06-24T01:53:01;7.00;;;3.50;;
28447;SDS011;15675;52.870;-1.416;2023-06-24T01:55:31;7.47;;;3.35;;
28447;SDS011;15675;52.870;-1.416;2023-06-24T01:57:58;6.47;;;3.55;;
28447;SDS011;15675;52.870;-1.416;2023-06-24T02:00:27;5.60;;;3.00;;
28447;SDS011;15675;52.870;-1.416;2023-06-24T02:02:54;4.90;;;3.05;;
28447;SDS011;15675;52.870;-1.416;2023-06-24T02:05:20;6.80;;;3.88;;
28447;SDS011;15675;52.870;-1.416;2023-06-24T02:07:47;5.60;;;3.47;;
28447;SDS011;15675;52.870;-1.416;2023-06-24T02:10:15;5.95;;;3.28;;
28447;SDS011;15675;52.870;-1.416;2023-06-24T02:12:42;6.22;;;3.53;;
28447;SDS011;15675;52.870;-1.416;2023-06-24T02:15:11;7.47;;;3.42;;
28447;SDS011;15675;52.870;-1.416;2023-06-24T02:17:37;5.88;;;3.83;;
28447;SDS011;15675;52.870;-1.416;2023-06-24T02:20:05;7.70;;;3.50;;
28447;SDS011;15675;52.870;-1.416;2023-06-24T02:22:34;5.70;;;3.58;;
28447;SDS011;15675;52.870;-1.416;2023-06-24T02:25:01;7.32;;;3.70;;
28447;SDS011;15675;52.870;-1.416;2023-06-24T02:27:28;8.10;;;3.45;;
28447;SDS011;15675;52.870;-1.416;2023-06-24T02:29:54;10.00;;;4.68;;
28447;SDS011;15675;52.870;-1.416;2023-06-24T02:32:21;11.85;;;3.55;;
28447;SDS011;15675;52.870;-1.416;2023-06-24T02:34:47;7.15;;;4.65;;
28447;SDS011;15675;52.870;-1.416;2023-06-24T02:37:13;7.65;;;4.07;;
28447;SDS011;15675;52.870;-1.416;2023-06-24T02:39:38;6.32;;;4.05;;
28447;SDS011;15675;52.870;-1.416;2023-06-24T02:42:09;7.05;;;3.65;;
28447;SDS011;15675;52.870;-1.416;2023-06-24T02:44:36;10.10;;;4.35;;
28447;SDS011;15675;52.870;-1.416;2023-06-24T02:47:01;6.70;;;3.72;;
28447;SDS011;15675;52.870;-1.416;2023-06-24T02:49:28;5.53;;;3.83;;
28447;SDS011;15675;52.870;-1.416;2023-06-24T02:51:54;8.88;;;4.20;;
28447;SDS011;15675;52.870;-1.416;2023-06-24T02:54:20;6.15;;;4.03;;
28447;SDS011;15675;52.870;-1.416;2023-06-24T02:56:45;7.95;;;3.78;;
28447;SDS011;15675;52.870;-1.416;2023-06-24T02:59:14;7.35;;;4.32;;
28447;SDS011;15675;52.870;-1.416;2023-06-24T03:01:39;6.78;;;3.90;;
28447;SDS011;15675;52.870;-1.416;2023-06-24T03:04:10;8.25;;;4.68;;
28447;SDS011;15675;52.870;-1.416;2023-06-24T03:06:36;9.02;;;4.63;;
28447;SDS011;15675;52.870;-1.416;2023-06-24T03:09:02;8.57;;;4.22;;
28447;SDS011;15675;52.870;-1.416;2023-06-24T03:11:29;7.57;;;3.83;;
28447;SDS011;15675;52.870;-1.416;2023-06-24T03:13:54;8.70;;;4.28;;
28447;SDS011;15675;52.870;-1.416;2023-06-24T03:16:20;9.27;;;4.00;;
28447;SDS011;15675;52.870;-1.416;2023-06-24T03:18:45;9.20;;;4.57;;
28447;SDS011;15675;52.870;-1.416;2023-06-24T03:21:11;8.30;;;4.25;;
28447;SDS011;15675;52.870;-1.416;2023-06-24T03:23:36;6.18;;;3.75;;
28447;SDS011;15675;52.870;-1.416;2023-06-24T03:26:02;7.90;;;3.78;;
28447;SDS011;15675;52.870;-1.416;2023-06-24T03:28:29;10.30;;;4.38;;
28447;SDS011;15675;52.870;-1.416;2023-06-24T03:30:56;9.45;;;4.03;;
28447;SDS011;15675;52.870;-1.416;2023-06-24T03:33:23;8.75;;;4.40;;
28447;SDS011;15675;52.870;-1.416;2023-06-24T03:35:49;7.85;;;4.15;;
28447;SDS011;15675;52.870;-1.416;2023-06-24T03:38:16;8.50;;;4.63;;
28447;SDS011;15675;52.870;-1.416;2023-06-24T03:40:41;8.68;;;4.22;;
28447;SDS011;15675;52.870;-1.416;2023-06-24T03:43:07;6.22;;;4.03;;
28447;SDS011;15675;52.870;-1.416;2023-06-24T03:45:32;9.32;;;4.38;;
28447;SDS011;15675;52.870;-1.416;2023-06-24T03:47:58;8.98;;;4.03;;
28447;SDS011;15675;52.870;-1.416;2023-06-24T03:50:23;10.15;;;4.47;;
28447;SDS011;15675;52.870;-1.416;2023-06-24T03:52:49;7.22;;;4.63;;
28447;SDS011;15675;52.870;-1.416;2023-06-24T03:55:14;9.93;;;4.72;;
28447;SDS011;15675;52.870;-1.416;2023-06-24T03:57:40;8.18;;;4.35;;
28447;SDS011;15675;52.870;-1.416;2023-06-24T04:00:06;11.18;;;4.10;;
28447;SDS011;15675;52.870;-1.416;2023-06-24T04:02:42;7.55;;;4.38;;
28447;SDS011;15675;52.870;-1.416;2023-06-24T04:05:09;13.70;;;4.50;;
28447;SDS011;15675;52.870;-1.416;2023-06-24T04:07:35;11.05;;;4.75;;
28447;SDS011;15675;52.870;-1.416;2023-06-24T04:10:02;7.75;;;4.65;;
28447;SDS011;15675;52.870;-1.416;2023-06-24T04:12:37;8.40;;;4.72;;
28447;SDS011;15675;52.870;-1.416;2023-06-24T04:15:03;9.23;;;4.38;;
28447;SDS011;15675;52.870;-1.416;2023-06-24T04:17:30;9.05;;;4.15;;
28447;SDS011;15675;52.870;-1.416;2023-06-24T04:19:56;9.20;;;4.68;;
28447;SDS011;15675;52.870;-1.416;2023-06-24T04:22:21;6.57;;;4.10;;
28447;SDS011;15675;52.870;-1.416;2023-06-24T04:24:47;9.35;;;4.28;;
28447;SDS011;15675;52.870;-1.416;2023-06-24T04:27:13;5.35;;;3.67;;
28447;SDS011;15675;52.870;-1.416;2023-06-24T04:29:38;9.68;;;4.20;;
28447;SDS011;15675;52.870;-1.416;2023-06-24T04:32:04;7.05;;;3.70;;
28447;SDS011;15675;52.870;-1.416;2023-06-24T04:34:29;7.72;;;4.57;;
28447;SDS011;15675;52.870;-1.416;2023-06-24T04:36:55;10.85;;;4.18;;
28447;SDS011;15675;52.870;-1.416;2023-06-24T04:39:21;9.82;;;4.00;;
28447;SDS011;15675;52.870;-1.416;2023-06-24T04:41:46;10.00;;;3.78;;
28447;SDS011;15675;52.870;-1.416;2023-06-24T04:44:12;9.80;;;3.63;;
28447;SDS011;15675;52.870;-1.416;2023-06-24T04:46:39;7.93;;;4.20;;
28447;SDS011;15675;52.870;-1.416;2023-06-24T04:49:05;9.55;;;3.80;;
28447;SDS011;15675;52.870;-1.416;2023-06-24T04:51:31;10.30;;;3.92;;
28447;SDS011;15675;52.870;-1.416;2023-06-24T04:53:57;6.32;;;3.90;;
28447;SDS011;15675;52.870;-1.416;2023-06-24T04:56:23;5.05;;;3.10;;
28447;SDS011;15675;52.870;-1.416;2023-06-24T04:58:49;8.38;;;3.85;;
28447;SDS011;15675;52.870;-1.416;2023-06-24T05:01:14;7.20;;;3.85;;
28447;SDS011;15675;52.870;-1.416;2023-06-24T05:03:40;12.13;;;4.60;;
28447;SDS011;15675;52.870;-1.416;2023-06-24T05:06:05;8.85;;;3.75;;
28447;SDS011;15675;52.870;-1.416;2023-06-24T05:08:31;13.50;;;3.80;;
28447;SDS011;15675;52.870;-1.416;2023-06-24T05:10:56;7.07;;;3.60;;
28447;SDS011;15675;52.870;-1.416;2023-06-24T05:13:22;7.90;;;3.90;;
28447;SDS011;15675;52.870;-1.416;2023-06-24T05:15:48;11.35;;;4.03;;
28447;SDS011;15675;52.870;-1.416;2023-06-24T05:18:14;10.02;;;4.32;;
28447;SDS011;15675;52.870;-1.416;2023-06-24T05:20:39;7.20;;;3.42;;
28447;SDS011;15675;52.870;-1.416;2023-06-24T05:23:05;5.55;;;3.33;;
28447;SDS011;15675;52.870;-1.416;2023-06-24T05:25:31;18.05;;;4.53;;
28447;SDS011;15675;52.870;-1.416;2023-06-24T05:27:57;9.10;;;3.63;;
28447;SDS011;15675;52.870;-1.416;2023-06-24T05:30:22;6.47;;;3.33;;
28447;SDS011;15675;52.870;-1.416;2023-06-24T05:32:48;7.03;;;3.85;;
28447;SDS011;15675;52.870;-1.416;2023-06-24T05:35:13;9.00;;;4.40;;
28447;SDS011;15675;52.870;-1.416;2023-06-24T05:37:39;9.80;;;3.85;;
28447;SDS011;15675;52.870;-1.416;2023-06-24T05:40:04;6.93;;;4.00;;
28447;SDS011;15675;52.870;-1.416;2023-06-24T05:42:31;7.13;;;4.15;;
28447;SDS011;15675;52.870;-1.416;2023-06-24T05:44:57;8.77;;;3.22;;
28447;SDS011;15675;52.870;-1.416;2023-06-24T05:47:22;5.93;;;3.88;;
28447;SDS011;15675;52.870;-1.416;2023-06-24T05:49:48;6.47;;;3.58;;
28447;SDS011;15675;52.870;-1.416;2023-06-24T05:52:14;14.93;;;4.07;;
28447;SDS011;15675;52.870;-1.416;2023-06-24T05:54:39;9.55;;;3.42;;
28447;SDS011;15675;52.870;-1.416;2023-06-24T05:57:05;8.32;;;4.15;;
28447;SDS011;15675;52.870;-1.416;2023-06-24T05:59:31;6.03;;;3.95;;
28447;SDS011;15675;52.870;-1.416;2023-06-24T06:01:57;8.63;;;4.03;;
28447;SDS011;15675;52.870;-1.416;2023-06-24T06:04:23;7.28;;;3.75;;
28447;SDS011;15675;52.870;-1.416;2023-06-24T06:06:48;5.47;;;3.55;;
28447;SDS011;15675;52.870;-1.416;2023-06-24T06:09:14;7.00;;;3.80;;
28447;SDS011;15675;52.870;-1.416;2023-06-24T06:11:40;9.20;;;3.90;;
28447;SDS011;15675;52.870;-1.416;2023-06-24T06:14:05;8.18;;;3.88;;
28447;SDS011;15675;52.870;-1.416;2023-06-24T06:16:31;8.73;;;3.83;;
28447;SDS011;15675;52.870;-1.416;2023-06-24T06:18:56;7.45;;;3.85;;
28447;SDS011;15675;52.870;-1.416;2023-06-24T06:21:22;8.15;;;4.05;;
28447;SDS011;15675;52.870;-1.416;2023-06-24T06:23:47;9.70;;;4.50;;
28447;SDS011;15675;52.870;-1.416;2023-06-24T06:26:13;10.00;;;4.18;;
28447;SDS011;15675;52.870;-1.416;2023-06-24T06:28:39;8.82;;;4.40;;
28447;SDS011;15675;52.870;-1.416;2023-06-24T06:31:05;6.50;;;3.65;;
28447;SDS011;15675;52.870;-1.416;2023-06-24T06:33:31;11.00;;;4.65;;
28447;SDS011;15675;52.870;-1.416;2023-06-24T06:35:56;10.43;;;5.07;;
28447;SDS011;15675;52.870;-1.416;2023-06-24T06:38:22;7.60;;;4.35;;
28447;SDS011;15675;52.870;-1.416;2023-06-24T06:40:47;6.20;;;3.63;;
28447;SDS011;15675;52.870;-1.416;2023-06-24T06:43:13;8.02;;;4.25;;
28447;SDS011;15675;52.870;-1.416;2023-06-24T06:45:38;8.93;;;4.10;;
28447;SDS011;15675;52.870;-1.416;2023-06-24T06:48:05;7.38;;;4.05;;
28447;SDS011;15675;52.870;-1.416;2023-06-24T06:50:33;13.20;;;4.32;;
28447;SDS011;15675;52.870;-1.416;2023-06-24T06:52:59;12.95;;;4.38;;
28447;SDS011;15675;52.870;-1.416;2023-06-24T06:55:25;7.85;;;4.18;;
28447;SDS011;15675;52.870;-1.416;2023-06-24T06:57:52;10.30;;;4.32;;
28447;SDS011;15675;52.870;-1.416;2023-06-24T07:00:18;6.93;;;3.92;;
28447;SDS011;15675;52.870;-1.416;2023-06-24T07:02:43;5.82;;;4.15;;
28447;SDS011;15675;52.870;-1.416;2023-06-24T07:05:09;7.10;;;4.75;;
28447;SDS011;15675;52.870;-1.416;2023-06-24T07:07:36;7.53;;;4.18;;
28447;SDS011;15675;52.870;-1.416;2023-06-24T07:10:03;7.72;;;4.03;;
28447;SDS011;15675;52.870;-1.416;2023-06-24T07:12:29;10.25;;;4.25;;
28447;SDS011;15675;52.870;-1.416;2023-06-24T07:14:54;7.15;;;4.30;;
28447;SDS011;15675;52.870;-1.416;2023-06-24T07:17:20;8.77;;;4.15;;
28447;SDS011;15675;52.870;-1.416;2023-06-24T07:19:45;10.52;;;3.97;;
28447;SDS011;15675;52.870;-1.416;2023-06-24T07:22:11;7.03;;;3.70;;
28447;SDS011;15675;52.870;-1.416;2023-06-24T07:24:36;7.35;;;4.10;;
28447;SDS011;15675;52.870;-1.416;2023-06-24T07:27:02;10.10;;;4.18;;
28447;SDS011;15675;52.870;-1.416;2023-06-24T07:29:28;12.85;;;4.18;;
28447;SDS011;15675;52.870;-1.416;2023-06-24T07:31:53;6.70;;;4.22;;
28447;SDS011;15675;52.870;-1.416;2023-06-24T07:34:19;6.72;;;3.95;;
28447;SDS011;15675;52.870;-1.416;2023-06-24T07:36:44;7.00;;;4.13;;
28447;SDS011;15675;52.870;-1.416;2023-06-24T07:39:10;7.57;;;4.05;;
28447;SDS011;15675;52.870;-1.416;2023-06-24T07:41:35;4.93;;;3.53;;
28447;SDS011;15675;52.870;-1.416;2023-06-24T07:44:01;6.95;;;3.33;;
28447;SDS011;15675;52.870;-1.416;2023-06-24T07:46:27;7.05;;;3.63;;
28447;SDS011;15675;52.870;-1.416;2023-06-24T07:48:53;7.47;;;3.30;;
28447;SDS011;15675;52.870;-1.416;2023-06-24T07:51:18;6.15;;;3.00;;
28447;SDS011;15675;52.870;-1.416;2023-06-24T07:53:44;5.70;;;3.22;;
28447;SDS011;15675;52.870;-1.416;2023-06-24T07:56:09;6.07;;;3.00;;
28447;SDS011;15675;52.870;-1.416;2023-06-24T07:58:35;7.38;;;3.10;;
28447;SDS011;15675;52.870;-1.416;2023-06-24T08:01:03;5.97;;;3.05;;
28447;SDS011;15675;52.870;-1.416;2023-06-24T08:03:29;7.03;;;3.50;;
28447;SDS011;15675;52.870;-1.416;2023-06-24T08:05:55;7.13;;;3.50;;
28447;SDS011;15675;52.870;-1.416;2023-06-24T08:08:21;5.35;;;3.28;;
28447;SDS011;15675;52.870;-1.416;2023-06-24T08:10:47;6.80;;;3.10;;
28447;SDS011;15675;52.870;-1.416;2023-06-24T08:13:13;4.82;;;3.55;;
28447;SDS011;15675;52.870;-1.416;2023-06-24T08:15:39;7.38;;;3.42;;
28447;SDS011;15675;52.870;-1.416;2023-06-24T08:18:04;6.65;;;3.65;;
28447;SDS011;15675;52.870;-1.416;2023-06-24T08:20:30;6.10;;;3.60;;
28447;SDS011;15675;52.870;-1.416;2023-06-24T08:22:55;6.72;;;3.97;;
28447;SDS011;15675;52.870;-1.416;2023-06-24T08:25:21;6.55;;;3.80;;
28447;SDS011;15675;52.870;-1.416;2023-06-24T08:27:46;5.85;;;3.60;;
28447;SDS011;15675;52.870;-1.416;2023-06-24T08:30:12;7.18;;;3.00;;
28447;SDS011;15675;52.870;-1.416;2023-06-24T08:32:43;4.28;;;2.60;;
28447;SDS011;15675;52.870;-1.416;2023-06-24T08:35:09;4.43;;;3.00;;
28447;SDS011;15675;52.870;-1.416;2023-06-24T08:37:38;4.95;;;3.17;;
28447;SDS011;15675;52.870;-1.416;2023-06-24T08:40:04;5.28;;;3.22;;
28447;SDS011;15675;52.870;-1.416;2023-06-24T08:42:30;6.65;;;3.03;;
28447;SDS011;15675;52.870;-1.416;2023-06-24T08:44:56;5.38;;;3.25;;
28447;SDS011;15675;52.870;-1.416;2023-06-24T08:47:23;9.18;;;3.05;;
28447;SDS011;15675;52.870;-1.416;2023-06-24T08:49:52;6.78;;;3.10;;
28447;SDS011;15675;52.870;-1.416;2023-06-24T08:52:21;5.68;;;3.22;;
28447;SDS011;15675;52.870;-1.416;2023-06-24T08:54:51;10.80;;;3.47;;
28447;SDS011;15675;52.870;-1.416;2023-06-24T08:57:20;6.90;;;2.92;;
28447;SDS011;15675;52.870;-1.416;2023-06-24T08:59:46;5.35;;;3.05;;
28447;SDS011;15675;52.870;-1.416;2023-06-24T09:02:11;4.03;;;2.70;;
28447;SDS011;15675;52.870;-1.416;2023-06-24T09:04:40;5.07;;;2.83;;
28447;SDS011;15675;52.870;-1.416;2023-06-24T09:07:05;5.03;;;2.83;;
28447;SDS011;15675;52.870;-1.416;2023-06-24T09:09:31;6.70;;;3.30;;
28447;SDS011;15675;52.870;-1.416;2023-06-24T09:11:58;5.65;;;2.60;;
28447;SDS011;15675;52.870;-1.416;2023-06-24T09:14:25;5.22;;;2.80;;
28447;SDS011;15675;52.870;-1.416;2023-06-24T09:16:53;3.70;;;2.90;;
28447;SDS011;15675;52.870;-1.416;2023-06-24T09:19:20;6.47;;;3.35;;
28447;SDS011;15675;52.870;-1.416;2023-06-24T09:21:49;6.03;;;2.88;;
28447;SDS011;15675;52.870;-1.416;2023-06-24T09:24:18;6.90;;;2.63;;
28447;SDS011;15675;52.870;-1.416;2023-06-24T09:26:44;4.05;;;2.40;;
28447;SDS011;15675;52.870;-1.416;2023-06-24T09:29:13;4.30;;;2.40;;
28447;SDS011;15675;52.870;-1.416;2023-06-24T09:31:49;4.30;;;2.35;;
28447;SDS011;15675;52.870;-1.416;2023-06-24T09:34:18;7.07;;;2.90;;
28447;SDS011;15675;52.870;-1.416;2023-06-24T09:36:44;5.45;;;2.25;;
28447;SDS011;15675;52.870;-1.416;2023-06-24T09:39:16;4.20;;;2.45;;
28447;SDS011;15675;52.870;-1.416;2023-06-24T09:41:41;4.00;;;2.60;;
28447;SDS011;15675;52.870;-1.416;2023-06-24T09:44:11;4.63;;;2.40;;
28447;SDS011;15675;52.870;-1.416;2023-06-24T09:46:37;4.18;;;2.17;;
28447;SDS011;15675;52.870;-1.416;2023-06-24T09:49:04;5.60;;;2.25;;
28447;SDS011;15675;52.870;-1.416;2023-06-24T09:51:32;4.53;;;2.00;;
28447;SDS011;15675;52.870;-1.416;2023-06-24T09:54:02;4.13;;;2.13;;
28447;SDS011;15675;52.870;-1.416;2023-06-24T09:56:31;4.18;;;1.92;;
28447;SDS011;15675;52.870;-1.416;2023-06-24T09:58:58;4.38;;;1.95;;
28447;SDS011;15675;52.870;-1.416;2023-06-24T10:01:24;3.63;;;2.00;;
28447;SDS011;15675;52.870;-1.416;2023-06-24T10:03:50;4.05;;;2.13;;
28447;SDS011;15675;52.870;-1.416;2023-06-24T10:06:15;3.88;;;1.88;;
28447;SDS011;15675;52.870;-1.416;2023-06-24T10:08:41;3.80;;;2.20;;
28447;SDS011;15675;52.870;-1.416;2023-06-24T10:11:07;5.60;;;1.75;;
28447;SDS011;15675;52.870;-1.416;2023-06-24T10:13:33;3.50;;;1.85;;
28447;SDS011;15675;52.870;-1.416;2023-06-24T10:15:59;3.65;;;2.15;;
28447;SDS011;15675;52.870;-1.416;2023-06-24T10:20:56;4.47;;;2.28;;
28447;SDS011;15675;52.870;-1.416;2023-06-24T10:23:22;5.03;;;2.20;;
28447;SDS011;15675;52.870;-1.416;2023-06-24T10:25:48;3.55;;;2.08;;
28447;SDS011;15675;52.870;-1.416;2023-06-24T10:28:13;4.85;;;2.28;;
28447;SDS011;15675;52.870;-1.416;2023-06-24T10:30:39;3.50;;;2.22;;
28447;SDS011;15675;52.870;-1.416;2023-06-24T10:33:08;4.75;;;2.30;;
28447;SDS011;15675;52.870;-1.416;2023-06-24T10:35:36;3.53;;;1.73;;
28447;SDS011;15675;52.870;-1.416;2023-06-24T10:38:09;4.85;;;2.88;;
28447;SDS011;15675;52.870;-1.416;2023-06-24T10:40:36;2.88;;;2.10;;
28447;SDS011;15675;52.870;-1.416;2023-06-24T10:45:55;7.00;;;3.13;;
28447;SDS011;15675;52.870;-1.416;2023-06-24T10:48:23;4.18;;;2.40;;
28447;SDS011;15675;52.870;-1.416;2023-06-24T10:50:49;4.68;;;2.25;;
28447;SDS011;15675;52.870;-1.416;2023-06-24T10:53:14;3.65;;;2.10;;
28447;SDS011;15675;52.870;-1.416;2023-06-24T10:55:40;4.47;;;2.60;;
28447;SDS011;15675;52.870;-1.416;2023-06-24T10:58:10;4.22;;;2.50;;
28447;SDS011;15675;52.870;-1.416;2023-06-24T11:00:38;4.18;;;2.85;;
28447;SDS011;15675;52.870;-1.416;2023-06-24T11:03:08;4.85;;;2.85;;
28447;SDS011;15675;52.870;-1.416;2023-06-24T11:05:36;4.53;;;2.47;;
28447;SDS011;15675;52.870;-1.416;2023-06-24T11:08:05;4.82;;;2.70;;
28447;SDS011;15675;52.870;-1.416;2023-06-24T11:10:31;4.43;;;2.40;;
28447;SDS011;15675;52.870;-1.416;2023-06-24T11:12:56;7.00;;;2.75;;
28447;SDS011;15675;52.870;-1.416;2023-06-24T11:15:24;4.43;;;2.45;;
28447;SDS011;15675;52.870;-1.416;2023-06-24T11:17:50;4.47;;;2.42;;
28447;SDS011;15675;52.870;-1.416;2023-06-24T11:20:16;4.72;;;2.35;;
28447;SDS011;15675;52.870;-1.416;2023-06-24T11:22:42;5.63;;;2.20;;
28447;SDS011;15675;52.870;-1.416;2023-06-24T11:25:15;5.60;;;2.40;;
28447;SDS011;15675;52.870;-1.416;2023-06-24T11:27:42;2.85;;;1.88;;
28447;SDS011;15675;52.870;-1.416;2023-06-24T11:30:07;4.00;;;1.98;;
28447;SDS011;15675;52.870;-1.416;2023-06-24T11:32:36;3.00;;;1.42;;
28447;SDS011;15675;52.870;-1.416;2023-06-24T11:35:07;4.30;;;1.80;;
28447;SDS011;15675;52.870;-1.416;2023-06-24T11:37:34;2.88;;;1.83;;
28447;SDS011;15675;52.870;-1.416;2023-06-24T11:40:01;4.10;;;1.80;;
28447;SDS011;15675;52.870;-1.416;2023-06-24T11:42:39;2.63;;;1.80;;
28447;SDS011;15675;52.870;-1.416;2023-06-24T11:45:07;3.85;;;1.85;;
28447;SDS011;15675;52.870;-1.416;2023-06-24T11:47:34;4.63;;;1.48;;
28447;SDS011;15675;52.870;-1.416;2023-06-24T11:50:00;5.68;;;1.92;;
28447;SDS011;15675;52.870;-1.416;2023-06-24T11:55:16;3.63;;;1.52;;
28447;SDS011;15675;52.870;-1.416;2023-06-24T12:03:07;3.20;;;2.00;;
28447;SDS011;15675;52.870;-1.416;2023-06-24T12:05:34;5.57;;;1.90;;
28447;SDS011;15675;52.870;-1.416;2023-06-24T12:08:10;3.45;;;2.10;;
28447;SDS011;15675;52.870;-1.416;2023-06-24T12:10:39;3.92;;;2.00;;
28447;SDS011;15675;52.870;-1.416;2023-06-24T12:13:04;4.80;;;2.38;;
28447;SDS011;15675;52.870;-1.416;2023-06-24T12:15:32;3.85;;;2.20;;
28447;SDS011;15675;52.870;-1.416;2023-06-24T12:17:58;4.30;;;1.90;;
28447;SDS011;15675;52.870;-1.416;2023-06-24T12:20:24;3.45;;;1.83;;
28447;SDS011;15675;52.870;-1.416;2023-06-24T12:22:51;4.40;;;1.88;;
28447;SDS011;15675;52.870;-1.416;2023-06-24T12:25:17;4.15;;;1.90;;
28447;SDS011;15675;52.870;-1.416;2023-06-24T12:27:43;4.82;;;2.00;;
28447;SDS011;15675;52.870;-1.416;2023-06-24T12:30:09;2.30;;;1.52;;
28447;SDS011;15675;52.870;-1.416;2023-06-24T12:32:35;2.42;;;1.60;;
28447;SDS011;15675;52.870;-1.416;2023-06-24T12:35:02;3.03;;;1.60;;
28447;SDS011;15675;52.870;-1.416;2023-06-24T12:37:31;2.28;;;1.40;;
28447;SDS011;15675;52.870;-1.416;2023-06-24T12:40:00;3.45;;;1.70;;
28447;SDS011;15675;52.870;-1.416;2023-06-24T12:42:27;5.55;;;1.83;;
28447;SDS011;15675;52.870;-1.416;2023-06-24T12:44:53;3.55;;;1.40;;
28447;SDS011;15675;52.870;-1.416;2023-06-24T12:47:18;4.40;;;1.40;;
28447;SDS011;15675;52.870;-1.416;2023-06-24T12:49:44;2.55;;;1.38;;
28447;SDS011;15675;52.870;-1.416;2023-06-24T12:52:11;2.47;;;1.65;;
28447;SDS011;15675;52.870;-1.416;2023-06-24T12:54:37;3.10;;;1.42;;
28447;SDS011;15675;52.870;-1.416;2023-06-24T12:57:03;3.20;;;1.60;;
28447;SDS011;15675;52.870;-1.416;2023-06-24T12:59:29;3.70;;;1.67;;
28447;SDS011;15675;52.870;-1.416;2023-06-24T13:01:54;3.17;;;2.03;;
28447;SDS011;15675;52.870;-1.416;2023-06-24T13:04:20;3.63;;;1.70;;
28447;SDS011;15675;52.870;-1.416;2023-06-24T13:06:48;2.08;;;1.50;;
28447;SDS011;15675;52.870;-1.416;2023-06-24T13:09:14;1.83;;;1.20;;
28447;SDS011;15675;52.870;-1.416;2023-06-24T13:11:40;4.35;;;1.65;;
28447;SDS011;15675;52.870;-1.416;2023-06-24T13:14:05;2.72;;;1.40;;
28447;SDS011;15675;52.870;-1.416;2023-06-24T13:16:31;3.38;;;1.50;;
28447;SDS011;15675;52.870;-1.416;2023-06-24T13:18:56;1.90;;;1.40;;
28447;SDS011;15675;52.870;-1.416;2023-06-24T13:21:23;2.13;;;1.13;;
28447;SDS011;15675;52.870;-1.416;2023-06-24T13:23:49;3.95;;;1.60;;
28447;SDS011;15675;52.870;-1.416;2023-06-24T13:26:14;3.25;;;1.13;;
28447;SDS011;15675;52.870;-1.416;2023-06-24T13:28:40;1.80;;;1.00;;
28447;SDS011;15675;52.870;-1.416;2023-06-24T13:31:05;2.75;;;1.20;;
28447;SDS011;15675;52.870;-1.416;2023-06-24T13:33:31;2.85;;;1.35;;
28447;SDS011;15675;52.870;-1.416;2023-06-24T13:35:57;3.38;;;1.20;;
28447;SDS011;15675;52.870;-1.416;2023-06-24T13:38:22;2.03;;;1.15;;
28447;SDS011;15675;52.870;-1.416;2023-06-24T13:40:48;2.30;;;1.20;;
28447;SDS011;15675;52.870;-1.416;2023-06-24T13:43:14;1.90;;;1.15;;
28447;SDS011;15675;52.870;-1.416;2023-06-24T13:45:39;2.58;;;1.05;;
28447;SDS011;15675;52.870;-1.416;2023-06-24T13:48:04;2.47;;;1.20;;
28447;SDS011;15675;52.870;-1.416;2023-06-24T13:50:30;4.53;;;1.00;;
28447;SDS011;15675;52.870;-1.416;2023-06-24T13:52:55;3.13;;;1.40;;
28447;SDS011;15675;52.870;-1.416;2023-06-24T13:55:21;3.22;;;1.30;;
28447;SDS011;15675;52.870;-1.416;2023-06-24T13:57:47;3.45;;;1.30;;
28447;SDS011;15675;52.870;-1.416;2023-06-24T14:00:13;2.72;;;1.15;;
28447;SDS011;15675;52.870;-1.416;2023-06-24T14:02:39;4.55;;;1.30;;
28447;SDS011;15675;52.870;-1.416;2023-06-24T14:05:06;2.25;;;1.30;;
28447;SDS011;15675;52.870;-1.416;2023-06-24T14:07:32;2.60;;;1.23;;
28447;SDS011;15675;52.870;-1.416;2023-06-24T14:09:58;5.10;;;1.45;;
28447;SDS011;15675;52.870;-1.416;2023-06-24T14:12:24;2.88;;;1.35;;
28447;SDS011;15675;52.870;-1.416;2023-06-24T14:14:50;2.30;;;1.30;;
28447;SDS011;15675;52.870;-1.416;2023-06-24T14:17:16;3.47;;;1.33;;
28447;SDS011;15675;52.870;-1.416;2023-06-24T14:19:41;2.72;;;1.50;;
28447;SDS011;15675;52.870;-1.416;2023-06-24T14:22:07;2.13;;;0.98;;
28447;SDS011;15675;52.870;-1.416;2023-06-24T14:24:34;4.40;;;1.30;;
28447;SDS011;15675;52.870;-1.416;2023-06-24T14:27:03;3.92;;;1.25;;
28447;SDS011;15675;52.870;-1.416;2023-06-24T14:29:30;4.75;;;1.55;;
28447;SDS011;15675;52.870;-1.416;2023-06-24T14:31:55;2.85;;;1.73;;
28447;SDS011;15675;52.870;-1.416;2023-06-24T14:34:21;3.25;;;1.55;;
28447;SDS011;15675;52.870;-1.416;2023-06-24T14:36:46;3.45;;;1.80;;
28447;SDS011;15675;52.870;-1.416;2023-06-24T14:39:14;2.88;;;1.70;;
28447;SDS011;15675;52.870;-1.416;2023-06-24T14:41:41;4.60;;;1.77;;
28447;SDS011;15675;52.870;-1.416;2023-06-24T14:44:07;5.63;;;1.67;;
28447;SDS011;15675;52.870;-1.416;2023-06-24T14:46:32;2.60;;;1.55;;
28447;SDS011;15675;52.870;-1.416;2023-06-24T14:48:58;3.95;;;1.90;;
28447;SDS011;15675;52.870;-1.416;2023-06-24T14:51:24;2.40;;;1.55;;
28447;SDS011;15675;52.870;-1.416;2023-06-24T14:53:50;3.55;;;1.60;;
28447;SDS011;15675;52.870;-1.416;2023-06-24T14:56:16;3.10;;;1.85;;
28447;SDS011;15675;52.870;-1.416;2023-06-24T14:58:41;2.55;;;1.13;;
28447;SDS011;15675;52.870;-1.416;2023-06-24T15:01:07;3.15;;;1.70;;
28447;SDS011;15675;52.870;-1.416;2023-06-24T15:03:32;5.80;;;1.80;;